sensor_id;sensor_type;location;lat;lon;timestamp;P1;durP1;ratioP1;P2;durP2;ratioP2
69005;SDS011;56061;51.748;19.620;2023-04-15T00:01:57;10.00;;;5.30;;
69005;SDS011;56061;51.748;19.620;2023-04-15T00:04:26;9.20;;;5.10;;
69005;SDS011;56061;51.748;19.620;2023-04-15T00:06:53;9.60;;;5.20;;
69005;SDS011;56061;51.748;19.620;2023-04-15T00:09:20;11.40;;;5.30;;
69005;SDS011;56061;51.748;19.620;2023-04-15T00:11:46;8.70;;;4.70;;
69005;SDS011;56061;51.748;19.620;2023-04-15T00:14:13;9.00;;;4.80;;
69005;SDS011;56061;51.748;19.620;2023-04-15T00:16:39;9.50;;;5.10;;
69005;SDS011;56061;51.748;19.620;2023-04-15T00:19:06;9.40;;;4.80;;
69005;SDS011;56061;51.748;19.620;2023-04-15T00:21:33;9.20;;;4.80;;
69005;SDS011;56061;51.748;19.620;2023-04-15T00:23:59;8.90;;;4.40;;
69005;SDS011;56061;51.748;19.620;2023-04-15T00:26:27;8.40;;;4.80;;
69005;SDS011;56061;51.748;19.620;2023-04-15T00:28:53;8.40;;;4.60;;
69005;SDS011;56061;51.748;19.620;2023-04-15T00:31:20;8.90;;;4.40;;
69005;SDS011;56061;51.748;19.620;2023-04-15T00:33:47;9.20;;;4.90;;
69005;SDS011;56061;51.748;19.620;2023-04-15T00:36:14;8.90;;;5.00;;
69005;SDS011;56061;51.748;19.620;2023-04-15T00:38:40;10.50;;;4.50;;
69005;SDS011;56061;51.748;19.620;2023-04-15T00:41:08;8.60;;;5.00;;
69005;SDS011;56061;51.748;19.620;2023-04-15T00:43:36;9.40;;;4.70;;
69005;SDS011;56061;51.748;19.620;2023-04-15T00:46:03;9.50;;;4.90;;
69005;SDS011;56061;51.748;19.620;2023-04-15T00:48:31;8.70;;;5.10;;
69005;SDS011;56061;51.748;19.620;2023-04-15T00:50:58;11.50;;;5.60;;
69005;SDS011;56061;51.748;19.620;2023-04-15T00:53:24;8.80;;;5.10;;
69005;SDS011;56061;51.748;19.620;2023-04-15T00:55:51;8.60;;;4.40;;
69005;SDS011;56061;51.748;19.620;2023-04-15T00:58:18;11.00;;;5.60;;
69005;SDS011;56061;51.748;19.620;2023-04-15T01:00:44;9.00;;;5.20;;
69005;SDS011;56061;51.748;19.620;2023-04-15T01:03:11;11.00;;;5.00;;
69005;SDS011;56061;51.748;19.620;2023-04-15T01:05:39;10.10;;;5.10;;
69005;SDS011;56061;51.748;19.620;2023-04-15T01:08:06;9.30;;;5.20;;
69005;SDS011;56061;51.748;19.620;2023-04-15T01:10:33;9.20;;;4.60;;
69005;SDS011;56061;51.748;19.620;2023-04-15T01:13:01;9.60;;;5.80;;
69005;SDS011;56061;51.748;19.620;2023-04-15T01:15:29;10.30;;;5.50;;
69005;SDS011;56061;51.748;19.620;2023-04-15T01:17:58;12.10;;;6.00;;
69005;SDS011;56061;51.748;19.620;2023-04-15T01:20:25;9.80;;;5.90;;
69005;SDS011;56061;51.748;19.620;2023-04-15T01:22:53;8.00;;;4.90;;
69005;SDS011;56061;51.748;19.620;2023-04-15T01:25:31;9.60;;;5.90;;
69005;SDS011;56061;51.748;19.620;2023-04-15T01:27:59;9.50;;;5.50;;
69005;SDS011;56061;51.748;19.620;2023-04-15T01:30:26;10.30;;;5.50;;
69005;SDS011;56061;51.748;19.620;2023-04-15T01:32:52;10.20;;;5.40;;
69005;SDS011;56061;51.748;19.620;2023-04-15T01:35:19;8.80;;;5.20;;
69005;SDS011;56061;51.748;19.620;2023-04-15T01:37:47;9.80;;;5.20;;
69005;SDS011;56061;51.748;19.620;2023-04-15T01:40:14;9.20;;;5.20;;
69005;SDS011;56061;51.748;19.620;2023-04-15T01:42:41;10.50;;;6.10;;
69005;SDS011;56061;51.748;19.620;2023-04-15T01:45:08;9.60;;;5.60;;
69005;SDS011;56061;51.748;19.620;2023-04-15T01:47:35;9.30;;;5.20;;
69005;SDS011;56061;51.748;19.620;2023-04-15T01:50:01;9.90;;;5.80;;
69005;SDS011;56061;51.748;19.620;2023-04-15T01:52:28;9.40;;;5.30;;
69005;SDS011;56061;51.748;19.620;2023-04-15T01:54:55;9.90;;;5.70;;
69005;SDS011;56061;51.748;19.620;2023-04-15T01:57:22;9.10;;;5.40;;
69005;SDS011;56061;51.748;19.620;2023-04-15T01:59:48;10.90;;;6.50;;
69005;SDS011;56061;51.748;19.620;2023-04-15T02:02:15;12.10;;;6.70;;
69005;SDS011;56061;51.748;19.620;2023-04-15T02:04:42;10.60;;;6.10;;
69005;SDS011;56061;51.748;19.620;2023-04-15T02:07:09;9.00;;;5.40;;
69005;SDS011;56061;51.748;19.620;2023-04-15T02:09:36;10.90;;;6.20;;
69005;SDS011;56061;51.748;19.620;2023-04-15T02:12:02;10.60;;;6.30;;
69005;SDS011;56061;51.748;19.620;2023-04-15T02:14:29;12.70;;;5.90;;
69005;SDS011;56061;51.748;19.620;2023-04-15T02:16:55;11.00;;;6.60;;
69005;SDS011;56061;51.748;19.620;2023-04-15T02:19:22;11.60;;;6.40;;
69005;SDS011;56061;51.748;19.620;2023-04-15T02:21:48;12.30;;;7.40;;
69005;SDS011;56061;51.748;19.620;2023-04-15T02:24:15;13.50;;;6.50;;
69005;SDS011;56061;51.748;19.620;2023-04-15T02:26:42;10.60;;;6.40;;
69005;SDS011;56061;51.748;19.620;2023-04-15T02:29:08;11.70;;;6.50;;
69005;SDS011;56061;51.748;19.620;2023-04-15T02:31:34;10.60;;;6.90;;
69005;SDS011;56061;51.748;19.620;2023-04-15T02:34:02;11.70;;;6.40;;
69005;SDS011;56061;51.748;19.620;2023-04-15T02:36:30;11.20;;;7.00;;
69005;SDS011;56061;51.748;19.620;2023-04-15T02:38:57;10.50;;;6.20;;
69005;SDS011;56061;51.748;19.620;2023-04-15T02:41:23;11.60;;;6.00;;
69005;SDS011;56061;51.748;19.620;2023-04-15T02:43:53;12.30;;;6.60;;
69005;SDS011;56061;51.748;19.620;2023-04-15T02:46:20;11.30;;;6.30;;
69005;SDS011;56061;51.748;19.620;2023-04-15T02:48:48;11.00;;;6.20;;
69005;SDS011;56061;51.748;19.620;2023-04-15T02:51:20;11.20;;;6.60;;
69005;SDS011;56061;51.748;19.620;2023-04-15T02:53:48;11.30;;;6.40;;
69005;SDS011;56061;51.748;19.620;2023-04-15T02:56:15;11.20;;;6.30;;
69005;SDS011;56061;51.748;19.620;2023-04-15T02:58:43;10.80;;;5.90;;
69005;SDS011;56061;51.748;19.620;2023-04-15T03:01:10;11.80;;;7.10;;
69005;SDS011;56061;51.748;19.620;2023-04-15T03:03:37;10.50;;;6.30;;
69005;SDS011;56061;51.748;19.620;2023-04-15T03:06:04;10.00;;;5.90;;
69005;SDS011;56061;51.748;19.620;2023-04-15T03:08:30;10.90;;;6.30;;
69005;SDS011;56061;51.748;19.620;2023-04-15T03:10:57;8.80;;;5.10;;
69005;SDS011;56061;51.748;19.620;2023-04-15T03:13:26;12.30;;;6.20;;
69005;SDS011;56061;51.748;19.620;2023-04-15T03:15:52;10.80;;;6.80;;
69005;SDS011;56061;51.748;19.620;2023-04-15T03:18:19;9.80;;;5.80;;
69005;SDS011;56061;51.748;19.620;2023-04-15T03:20:45;10.50;;;5.90;;
69005;SDS011;56061;51.748;19.620;2023-04-15T03:23:12;11.10;;;6.50;;
69005;SDS011;56061;51.748;19.620;2023-04-15T03:25:38;8.60;;;5.80;;
69005;SDS011;56061;51.748;19.620;2023-04-15T03:28:04;10.30;;;6.00;;
69005;SDS011;56061;51.748;19.620;2023-04-15T03:30:31;9.30;;;5.30;;
69005;SDS011;56061;51.748;19.620;2023-04-15T03:32:58;9.30;;;5.00;;
69005;SDS011;56061;51.748;19.620;2023-04-15T03:35:24;10.30;;;6.00;;
69005;SDS011;56061;51.748;19.620;2023-04-15T03:37:51;10.10;;;5.80;;
69005;SDS011;56061;51.748;19.620;2023-04-15T03:40:17;8.80;;;5.50;;
69005;SDS011;56061;51.748;19.620;2023-04-15T03:42:44;9.00;;;5.80;;
69005;SDS011;56061;51.748;19.620;2023-04-15T03:45:10;9.90;;;5.30;;
69005;SDS011;56061;51.748;19.620;2023-04-15T03:47:37;9.50;;;5.90;;
69005;SDS011;56061;51.748;19.620;2023-04-15T03:50:04;8.20;;;5.10;;
69005;SDS011;56061;51.748;19.620;2023-04-15T03:52:30;10.30;;;5.60;;
69005;SDS011;56061;51.748;19.620;2023-04-15T03:54:57;8.70;;;4.90;;
69005;SDS011;56061;51.748;19.620;2023-04-15T03:57:23;9.90;;;5.70;;
69005;SDS011;56061;51.748;19.620;2023-04-15T03:59:50;8.90;;;4.80;;
69005;SDS011;56061;51.748;19.620;2023-04-15T04:02:17;9.00;;;5.30;;
69005;SDS011;56061;51.748;19.620;2023-04-15T04:04:43;9.20;;;5.40;;
69005;SDS011;56061;51.748;19.620;2023-04-15T04:07:14;9.30;;;5.20;;
69005;SDS011;56061;51.748;19.620;2023-04-15T04:09:41;8.00;;;4.50;;
69005;SDS011;56061;51.748;19.620;2023-04-15T04:12:08;10.30;;;5.60;;
69005;SDS011;56061;51.748;19.620;2023-04-15T04:14:34;10.30;;;5.80;;
69005;SDS011;56061;51.748;19.620;2023-04-15T04:17:01;9.20;;;5.30;;
69005;SDS011;56061;51.748;19.620;2023-04-15T04:19:27;9.50;;;6.00;;
69005;SDS011;56061;51.748;19.620;2023-04-15T04:21:55;8.90;;;5.30;;
69005;SDS011;56061;51.748;19.620;2023-04-15T04:24:21;8.70;;;5.20;;
69005;SDS011;56061;51.748;19.620;2023-04-15T04:26:48;9.20;;;5.50;;
69005;SDS011;56061;51.748;19.620;2023-04-15T04:29:14;9.80;;;5.60;;
69005;SDS011;56061;51.748;19.620;2023-04-15T04:31:41;11.20;;;5.40;;
69005;SDS011;56061;51.748;19.620;2023-04-15T04:34:08;10.30;;;5.10;;
69005;SDS011;56061;51.748;19.620;2023-04-15T04:36:34;9.50;;;5.00;;
69005;SDS011;56061;51.748;19.620;2023-04-15T04:39:00;10.10;;;5.70;;
69005;SDS011;56061;51.748;19.620;2023-04-15T04:41:27;8.00;;;4.50;;
69005;SDS011;56061;51.748;19.620;2023-04-15T04:43:55;9.20;;;5.50;;
69005;SDS011;56061;51.748;19.620;2023-04-15T04:46:21;8.80;;;5.50;;
69005;SDS011;56061;51.748;19.620;2023-04-15T04:48:49;7.10;;;4.50;;
69005;SDS011;56061;51.748;19.620;2023-04-15T04:51:16;8.20;;;5.00;;
69005;SDS011;56061;51.748;19.620;2023-04-15T04:53:43;8.40;;;5.20;;
69005;SDS011;56061;51.748;19.620;2023-04-15T04:56:09;8.60;;;5.00;;
69005;SDS011;56061;51.748;19.620;2023-04-15T04:58:36;8.20;;;4.80;;
69005;SDS011;56061;51.748;19.620;2023-04-15T05:01:03;7.30;;;4.40;;
69005;SDS011;56061;51.748;19.620;2023-04-15T05:03:29;8.40;;;5.00;;
69005;SDS011;56061;51.748;19.620;2023-04-15T05:05:56;8.30;;;4.60;;
69005;SDS011;56061;51.748;19.620;2023-04-15T05:08:23;8.80;;;5.30;;
69005;SDS011;56061;51.748;19.620;2023-04-15T05:10:49;9.70;;;5.50;;
69005;SDS011;56061;51.748;19.620;2023-04-15T05:13:16;10.70;;;6.00;;
69005;SDS011;56061;51.748;19.620;2023-04-15T05:15:42;10.40;;;5.80;;
69005;SDS011;56061;51.748;19.620;2023-04-15T05:18:10;9.20;;;5.40;;
69005;SDS011;56061;51.748;19.620;2023-04-15T05:20:37;10.10;;;5.60;;
69005;SDS011;56061;51.748;19.620;2023-04-15T05:23:03;9.10;;;5.60;;
69005;SDS011;56061;51.748;19.620;2023-04-15T05:25:30;9.10;;;5.50;;
69005;SDS011;56061;51.748;19.620;2023-04-15T05:27:56;8.30;;;5.00;;
69005;SDS011;56061;51.748;19.620;2023-04-15T05:30:23;9.90;;;5.70;;
69005;SDS011;56061;51.748;19.620;2023-04-15T05:32:49;10.60;;;5.90;;
69005;SDS011;56061;51.748;19.620;2023-04-15T05:35:16;9.70;;;5.30;;
69005;SDS011;56061;51.748;19.620;2023-04-15T05:37:43;10.00;;;5.90;;
69005;SDS011;56061;51.748;19.620;2023-04-15T05:40:09;10.00;;;6.10;;
69005;SDS011;56061;51.748;19.620;2023-04-15T05:42:36;10.50;;;5.70;;
69005;SDS011;56061;51.748;19.620;2023-04-15T05:45:03;13.80;;;5.90;;
69005;SDS011;56061;51.748;19.620;2023-04-15T05:47:35;13.40;;;5.60;;
69005;SDS011;56061;51.748;19.620;2023-04-15T05:50:03;9.00;;;4.80;;
69005;SDS011;56061;51.748;19.620;2023-04-15T05:52:30;10.90;;;5.10;;
69005;SDS011;56061;51.748;19.620;2023-04-15T05:54:57;10.50;;;5.30;;
69005;SDS011;56061;51.748;19.620;2023-04-15T05:57:23;10.50;;;5.40;;
69005;SDS011;56061;51.748;19.620;2023-04-15T05:59:50;12.40;;;6.00;;
69005;SDS011;56061;51.748;19.620;2023-04-15T06:02:19;11.60;;;5.60;;
69005;SDS011;56061;51.748;19.620;2023-04-15T06:04:45;9.40;;;5.40;;
69005;SDS011;56061;51.748;19.620;2023-04-15T06:07:12;7.80;;;4.50;;
69005;SDS011;56061;51.748;19.620;2023-04-15T06:09:39;9.00;;;5.30;;
69005;SDS011;56061;51.748;19.620;2023-04-15T06:12:05;7.60;;;4.40;;
69005;SDS011;56061;51.748;19.620;2023-04-15T06:14:37;8.70;;;4.70;;
69005;SDS011;56061;51.748;19.620;2023-04-15T06:17:05;9.40;;;4.90;;
69005;SDS011;56061;51.748;19.620;2023-04-15T06:19:32;8.20;;;4.50;;
69005;SDS011;56061;51.748;19.620;2023-04-15T06:21:59;7.70;;;4.30;;
69005;SDS011;56061;51.748;19.620;2023-04-15T06:24:27;9.10;;;4.90;;
69005;SDS011;56061;51.748;19.620;2023-04-15T06:26:54;8.20;;;5.00;;
69005;SDS011;56061;51.748;19.620;2023-04-15T06:29:21;8.70;;;4.80;;
69005;SDS011;56061;51.748;19.620;2023-04-15T06:31:47;9.60;;;5.40;;
69005;SDS011;56061;51.748;19.620;2023-04-15T06:34:14;9.40;;;5.00;;
69005;SDS011;56061;51.748;19.620;2023-04-15T06:36:41;9.60;;;5.30;;
69005;SDS011;56061;51.748;19.620;2023-04-15T06:39:07;9.10;;;5.00;;
69005;SDS011;56061;51.748;19.620;2023-04-15T06:41:34;9.40;;;5.40;;
69005;SDS011;56061;51.748;19.620;2023-04-15T06:44:01;10.60;;;5.90;;
69005;SDS011;56061;51.748;19.620;2023-04-15T06:46:28;11.10;;;6.30;;
69005;SDS011;56061;51.748;19.620;2023-04-15T06:48:54;10.30;;;5.80;;
69005;SDS011;56061;51.748;19.620;2023-04-15T06:51:21;9.30;;;5.60;;
69005;SDS011;56061;51.748;19.620;2023-04-15T06:53:51;11.80;;;6.20;;
69005;SDS011;56061;51.748;19.620;2023-04-15T06:56:18;11.10;;;6.60;;
69005;SDS011;56061;51.748;19.620;2023-04-15T06:58:44;10.00;;;5.90;;
69005;SDS011;56061;51.748;19.620;2023-04-15T07:01:12;12.70;;;6.60;;
69005;SDS011;56061;51.748;19.620;2023-04-15T07:03:39;10.00;;;5.50;;
69005;SDS011;56061;51.748;19.620;2023-04-15T07:06:07;9.20;;;5.00;;
69005;SDS011;56061;51.748;19.620;2023-04-15T07:08:34;8.60;;;4.70;;
69005;SDS011;56061;51.748;19.620;2023-04-15T07:11:01;9.50;;;4.90;;
69005;SDS011;56061;51.748;19.620;2023-04-15T07:13:30;10.30;;;5.10;;
69005;SDS011;56061;51.748;19.620;2023-04-15T07:15:57;9.20;;;5.00;;
69005;SDS011;56061;51.748;19.620;2023-04-15T07:18:23;10.00;;;5.50;;
69005;SDS011;56061;51.748;19.620;2023-04-15T07:20:50;8.40;;;4.60;;
69005;SDS011;56061;51.748;19.620;2023-04-15T07:23:17;10.60;;;5.80;;
69005;SDS011;56061;51.748;19.620;2023-04-15T07:25:44;10.60;;;5.80;;
69005;SDS011;56061;51.748;19.620;2023-04-15T07:28:10;9.60;;;5.60;;
69005;SDS011;56061;51.748;19.620;2023-04-15T07:30:37;9.90;;;5.80;;
69005;SDS011;56061;51.748;19.620;2023-04-15T07:33:03;12.50;;;6.40;;
69005;SDS011;56061;51.748;19.620;2023-04-15T07:35:30;11.30;;;6.00;;
69005;SDS011;56061;51.748;19.620;2023-04-15T07:37:56;10.80;;;6.10;;
69005;SDS011;56061;51.748;19.620;2023-04-15T07:40:23;11.30;;;6.30;;
69005;SDS011;56061;51.748;19.620;2023-04-15T07:42:49;11.70;;;6.30;;
69005;SDS011;56061;51.748;19.620;2023-04-15T07:45:16;12.40;;;6.60;;
69005;SDS011;56061;51.748;19.620;2023-04-15T07:47:43;13.30;;;7.00;;
69005;SDS011;56061;51.748;19.620;2023-04-15T07:50:09;13.30;;;6.80;;
69005;SDS011;56061;51.748;19.620;2023-04-15T07:52:39;14.90;;;8.10;;
69005;SDS011;56061;51.748;19.620;2023-04-15T07:55:07;12.80;;;7.10;;
69005;SDS011;56061;51.748;19.620;2023-04-15T07:57:34;12.30;;;6.90;;
69005;SDS011;56061;51.748;19.620;2023-04-15T08:00:03;12.10;;;6.80;;
69005;SDS011;56061;51.748;19.620;2023-04-15T08:02:31;14.70;;;7.70;;
69005;SDS011;56061;51.748;19.620;2023-04-15T08:04:58;13.70;;;6.80;;
69005;SDS011;56061;51.748;19.620;2023-04-15T08:07:25;13.80;;;7.70;;
69005;SDS011;56061;51.748;19.620;2023-04-15T08:09:51;14.80;;;8.10;;
69005;SDS011;56061;51.748;19.620;2023-04-15T08:12:18;11.60;;;6.60;;
69005;SDS011;56061;51.748;19.620;2023-04-15T08:14:44;14.10;;;7.60;;
69005;SDS011;56061;51.748;19.620;2023-04-15T08:17:11;13.80;;;7.90;;
69005;SDS011;56061;51.748;19.620;2023-04-15T08:19:39;14.10;;;8.10;;
69005;SDS011;56061;51.748;19.620;2023-04-15T08:22:05;13.30;;;7.60;;
69005;SDS011;56061;51.748;19.620;2023-04-15T08:24:43;14.10;;;8.10;;
69005;SDS011;56061;51.748;19.620;2023-04-15T08:27:09;12.60;;;7.10;;
69005;SDS011;56061;51.748;19.620;2023-04-15T08:29:36;13.20;;;7.50;;
69005;SDS011;56061;51.748;19.620;2023-04-15T08:32:03;11.90;;;6.70;;
69005;SDS011;56061;51.748;19.620;2023-04-15T08:34:29;12.80;;;7.40;;
69005;SDS011;56061;51.748;19.620;2023-04-15T08:36:56;10.80;;;6.60;;
69005;SDS011;56061;51.748;19.620;2023-04-15T08:39:22;10.70;;;6.10;;
69005;SDS011;56061;51.748;19.620;2023-04-15T08:41:59;11.80;;;6.20;;
69005;SDS011;56061;51.748;19.620;2023-04-15T08:44:28;10.50;;;6.00;;
69005;SDS011;56061;51.748;19.620;2023-04-15T08:47:00;10.90;;;6.00;;
69005;SDS011;56061;51.748;19.620;2023-04-15T08:49:28;10.40;;;6.00;;
69005;SDS011;56061;51.748;19.620;2023-04-15T08:51:57;11.00;;;6.40;;
69005;SDS011;56061;51.748;19.620;2023-04-15T08:54:25;10.70;;;6.10;;
69005;SDS011;56061;51.748;19.620;2023-04-15T08:56:53;12.70;;;7.00;;
69005;SDS011;56061;51.748;19.620;2023-04-15T08:59:20;10.70;;;6.20;;
69005;SDS011;56061;51.748;19.620;2023-04-15T09:01:49;12.80;;;7.10;;
69005;SDS011;56061;51.748;19.620;2023-04-15T09:04:18;12.40;;;7.20;;
69005;SDS011;56061;51.748;19.620;2023-04-15T09:06:45;12.70;;;6.90;;
69005;SDS011;56061;51.748;19.620;2023-04-15T09:09:12;11.00;;;6.80;;
69005;SDS011;56061;51.748;19.620;2023-04-15T09:11:40;11.40;;;7.10;;
69005;SDS011;56061;51.748;19.620;2023-04-15T09:14:07;10.30;;;6.30;;
69005;SDS011;56061;51.748;19.620;2023-04-15T09:16:59;11.80;;;5.90;;
69005;SDS011;56061;51.748;19.620;2023-04-15T09:19:28;12.00;;;6.60;;
69005;SDS011;56061;51.748;19.620;2023-04-15T09:21:56;12.80;;;7.60;;
69005;SDS011;56061;51.748;19.620;2023-04-15T09:24:25;11.60;;;6.70;;
69005;SDS011;56061;51.748;19.620;2023-04-15T09:27:01;13.10;;;6.80;;
69005;SDS011;56061;51.748;19.620;2023-04-15T09:29:28;11.90;;;7.60;;
69005;SDS011;56061;51.748;19.620;2023-04-15T09:31:55;11.50;;;7.20;;
69005;SDS011;56061;51.748;19.620;2023-04-15T09:34:34;14.60;;;7.80;;
69005;SDS011;56061;51.748;19.620;2023-04-15T09:37:02;14.10;;;8.10;;
69005;SDS011;56061;51.748;19.620;2023-04-15T09:39:53;14.30;;;7.50;;
69005;SDS011;56061;51.748;19.620;2023-04-15T09:42:19;10.60;;;6.50;;
69005;SDS011;56061;51.748;19.620;2023-04-15T09:44:50;13.00;;;7.40;;
69005;SDS011;56061;51.748;19.620;2023-04-15T09:47:30;11.10;;;6.90;;
69005;SDS011;56061;51.748;19.620;2023-04-15T09:49:58;10.50;;;6.30;;
69005;SDS011;56061;51.748;19.620;2023-04-15T09:52:27;10.90;;;5.80;;
69005;SDS011;56061;51.748;19.620;2023-04-15T09:54:56;11.30;;;7.20;;
69005;SDS011;56061;51.748;19.620;2023-04-15T09:57:24;11.90;;;6.70;;
69005;SDS011;56061;51.748;19.620;2023-04-15T09:59:51;9.80;;;6.10;;
69005;SDS011;56061;51.748;19.620;2023-04-15T10:02:18;10.50;;;6.00;;
69005;SDS011;56061;51.748;19.620;2023-04-15T10:04:47;12.20;;;7.10;;
69005;SDS011;56061;51.748;19.620;2023-04-15T10:07:14;9.30;;;5.70;;
69005;SDS011;56061;51.748;19.620;2023-04-15T10:09:47;10.40;;;5.80;;
69005;SDS011;56061;51.748;19.620;2023-04-15T10:12:18;11.00;;;6.10;;
69005;SDS011;56061;51.748;19.620;2023-04-15T10:14:55;10.20;;;6.20;;
69005;SDS011;56061;51.748;19.620;2023-04-15T10:17:29;15.30;;;7.60;;
69005;SDS011;56061;51.748;19.620;2023-04-15T10:20:02;12.60;;;7.20;;
69005;SDS011;56061;51.748;19.620;2023-04-15T10:22:31;9.90;;;5.90;;
69005;SDS011;56061;51.748;19.620;2023-04-15T10:24:58;8.70;;;4.80;;
69005;SDS011;56061;51.748;19.620;2023-04-15T10:27:26;10.00;;;5.60;;
69005;SDS011;56061;51.748;19.620;2023-04-15T10:29:53;9.10;;;5.00;;
69005;SDS011;56061;51.748;19.620;2023-04-15T10:32:20;10.50;;;6.20;;
69005;SDS011;56061;51.748;19.620;2023-04-15T10:34:48;9.90;;;5.70;;
69005;SDS011;56061;51.748;19.620;2023-04-15T10:37:21;11.20;;;6.20;;
69005;SDS011;56061;51.748;19.620;2023-04-15T10:39:48;8.90;;;5.70;;
69005;SDS011;56061;51.748;19.620;2023-04-15T10:42:17;9.00;;;5.50;;
69005;SDS011;56061;51.748;19.620;2023-04-15T10:44:48;10.40;;;5.90;;
69005;SDS011;56061;51.748;19.620;2023-04-15T10:47:20;10.20;;;5.50;;
69005;SDS011;56061;51.748;19.620;2023-04-15T10:49:48;10.20;;;6.10;;
69005;SDS011;56061;51.748;19.620;2023-04-15T10:52:17;10.20;;;6.40;;
69005;SDS011;56061;51.748;19.620;2023-04-15T10:54:49;9.70;;;5.50;;
69005;SDS011;56061;51.748;19.620;2023-04-15T10:57:21;9.20;;;5.90;;
69005;SDS011;56061;51.748;19.620;2023-04-15T10:59:58;9.00;;;5.40;;
69005;SDS011;56061;51.748;19.620;2023-04-15T11:03:04;9.20;;;5.50;;
69005;SDS011;56061;51.748;19.620;2023-04-15T11:08:09;8.90;;;5.00;;
69005;SDS011;56061;51.748;19.620;2023-04-15T11:15:41;9.00;;;5.10;;
69005;SDS011;56061;51.748;19.620;2023-04-15T11:18:18;8.40;;;5.00;;
69005;SDS011;56061;51.748;19.620;2023-04-15T11:20:48;8.00;;;4.60;;
69005;SDS011;56061;51.748;19.620;2023-04-15T11:26:12;10.20;;;5.60;;
69005;SDS011;56061;51.748;19.620;2023-04-15T11:28:42;10.30;;;5.30;;
69005;SDS011;56061;51.748;19.620;2023-04-15T11:31:12;9.40;;;6.00;;
69005;SDS011;56061;51.748;19.620;2023-04-15T11:33:58;8.00;;;4.90;;
69005;SDS011;56061;51.748;19.620;2023-04-15T11:36:29;9.20;;;5.00;;
69005;SDS011;56061;51.748;19.620;2023-04-15T11:38:58;9.10;;;5.90;;
69005;SDS011;56061;51.748;19.620;2023-04-15T11:41:25;8.90;;;5.20;;
69005;SDS011;56061;51.748;19.620;2023-04-15T11:43:52;7.70;;;4.50;;
69005;SDS011;56061;51.748;19.620;2023-04-15T11:46:19;9.00;;;4.90;;
69005;SDS011;56061;51.748;19.620;2023-04-15T11:48:47;7.30;;;4.50;;
69005;SDS011;56061;51.748;19.620;2023-04-15T11:51:14;7.70;;;5.20;;
69005;SDS011;56061;51.748;19.620;2023-04-15T11:53:50;8.60;;;4.90;;
69005;SDS011;56061;51.748;19.620;2023-04-15T11:56:26;7.50;;;4.50;;
69005;SDS011;56061;51.748;19.620;2023-04-15T11:58:55;9.60;;;5.10;;
69005;SDS011;56061;51.748;19.620;2023-04-15T12:01:36;10.00;;;6.10;;
69005;SDS011;56061;51.748;19.620;2023-04-15T12:04:14;13.10;;;7.10;;
69005;SDS011;56061;51.748;19.620;2023-04-15T12:06:50;11.90;;;6.00;;
69005;SDS011;56061;51.748;19.620;2023-04-15T12:09:17;17.50;;;10.80;;
69005;SDS011;56061;51.748;19.620;2023-04-15T12:11:49;12.60;;;6.60;;
69005;SDS011;56061;51.748;19.620;2023-04-15T12:14:25;11.30;;;5.70;;
69005;SDS011;56061;51.748;19.620;2023-04-15T12:17:02;12.10;;;6.20;;
69005;SDS011;56061;51.748;19.620;2023-04-15T12:19:38;9.80;;;5.60;;
69005;SDS011;56061;51.748;19.620;2023-04-15T12:22:12;8.90;;;3.40;;
69005;SDS011;56061;51.748;19.620;2023-04-15T12:24:43;11.90;;;7.20;;
69005;SDS011;56061;51.748;19.620;2023-04-15T12:27:15;8.40;;;5.10;;
69005;SDS011;56061;51.748;19.620;2023-04-15T12:29:42;9.60;;;5.50;;
69005;SDS011;56061;51.748;19.620;2023-04-15T12:32:11;7.90;;;5.40;;
69005;SDS011;56061;51.748;19.620;2023-04-15T12:34:50;11.20;;;6.60;;
69005;SDS011;56061;51.748;19.620;2023-04-15T12:37:17;16.20;;;8.90;;
69005;SDS011;56061;51.748;19.620;2023-04-15T12:39:46;11.90;;;6.80;;
69005;SDS011;56061;51.748;19.620;2023-04-15T12:42:15;11.00;;;5.70;;
69005;SDS011;56061;51.748;19.620;2023-04-15T12:44:43;13.80;;;7.20;;
69005;SDS011;56061;51.748;19.620;2023-04-15T12:47:10;13.20;;;6.80;;
69005;SDS011;56061;51.748;19.620;2023-04-15T12:49:37;15.30;;;8.60;;
69005;SDS011;56061;51.748;19.620;2023-04-15T12:52:05;20.20;;;11.20;;
69005;SDS011;56061;51.748;19.620;2023-04-15T12:54:32;54.90;;;22.40;;
69005;SDS011;56061;51.748;19.620;2023-04-15T12:57:02;61.50;;;26.50;;
69005;SDS011;56061;51.748;19.620;2023-04-15T12:59:32;49.90;;;24.10;;
69005;SDS011;56061;51.748;19.620;2023-04-15T13:02:00;52.20;;;27.00;;
69005;SDS011;56061;51.748;19.620;2023-04-15T13:04:28;34.50;;;18.40;;
69005;SDS011;56061;51.748;19.620;2023-04-15T13:06:56;26.20;;;14.10;;
69005;SDS011;56061;51.748;19.620;2023-04-15T13:09:23;21.60;;;12.90;;
69005;SDS011;56061;51.748;19.620;2023-04-15T13:11:50;18.10;;;10.90;;
69005;SDS011;56061;51.748;19.620;2023-04-15T13:14:16;22.50;;;13.90;;
69005;SDS011;56061;51.748;19.620;2023-04-15T13:16:43;25.80;;;13.60;;
69005;SDS011;56061;51.748;19.620;2023-04-15T13:19:09;54.60;;;33.20;;
69005;SDS011;56061;51.748;19.620;2023-04-15T13:21:36;31.10;;;19.70;;
69005;SDS011;56061;51.748;19.620;2023-04-15T13:24:03;38.20;;;22.80;;
69005;SDS011;56061;51.748;19.620;2023-04-15T13:26:30;65.00;;;44.20;;
69005;SDS011;56061;51.748;19.620;2023-04-15T13:28:57;40.90;;;25.20;;
69005;SDS011;56061;51.748;19.620;2023-04-15T13:31:24;8.70;;;4.70;;
69005;SDS011;56061;51.748;19.620;2023-04-15T13:33:51;40.20;;;18.50;;
69005;SDS011;56061;51.748;19.620;2023-04-15T13:36:18;31.20;;;12.40;;
69005;SDS011;56061;51.748;19.620;2023-04-15T13:38:44;11.30;;;5.90;;
69005;SDS011;56061;51.748;19.620;2023-04-15T13:41:11;11.50;;;5.60;;
69005;SDS011;56061;51.748;19.620;2023-04-15T13:43:37;48.80;;;16.40;;
69005;SDS011;56061;51.748;19.620;2023-04-15T13:46:04;17.70;;;8.20;;
69005;SDS011;56061;51.748;19.620;2023-04-15T13:48:30;26.40;;;10.60;;
69005;SDS011;56061;51.748;19.620;2023-04-15T13:50:57;17.10;;;6.90;;
69005;SDS011;56061;51.748;19.620;2023-04-15T13:53:23;10.50;;;5.30;;
69005;SDS011;56061;51.748;19.620;2023-04-15T13:56:05;7.10;;;3.50;;
69005;SDS011;56061;51.748;19.620;2023-04-15T13:58:32;6.40;;;3.50;;
69005;SDS011;56061;51.748;19.620;2023-04-15T14:00:59;7.80;;;4.00;;
69005;SDS011;56061;51.748;19.620;2023-04-15T14:03:29;10.00;;;4.60;;
69005;SDS011;56061;51.748;19.620;2023-04-15T14:05:56;15.80;;;7.10;;
69005;SDS011;56061;51.748;19.620;2023-04-15T14:08:23;8.50;;;4.80;;
69005;SDS011;56061;51.748;19.620;2023-04-15T14:10:50;6.90;;;3.90;;
69005;SDS011;56061;51.748;19.620;2023-04-15T14:13:17;6.90;;;3.90;;
69005;SDS011;56061;51.748;19.620;2023-04-15T14:15:44;9.50;;;4.70;;
69005;SDS011;56061;51.748;19.620;2023-04-15T14:18:11;14.50;;;6.70;;
69005;SDS011;56061;51.748;19.620;2023-04-15T14:20:38;14.90;;;6.90;;
69005;SDS011;56061;51.748;19.620;2023-04-15T14:23:04;11.60;;;6.10;;
69005;SDS011;56061;51.748;19.620;2023-04-15T14:25:31;24.40;;;11.20;;
69005;SDS011;56061;51.748;19.620;2023-04-15T14:28:00;14.20;;;7.20;;
69005;SDS011;56061;51.748;19.620;2023-04-15T14:30:27;17.30;;;9.20;;
69005;SDS011;56061;51.748;19.620;2023-04-15T14:32:54;15.10;;;8.90;;
69005;SDS011;56061;51.748;19.620;2023-04-15T14:35:20;12.70;;;7.20;;
69005;SDS011;56061;51.748;19.620;2023-04-15T14:37:47;13.60;;;7.80;;
69005;SDS011;56061;51.748;19.620;2023-04-15T14:40:13;12.80;;;6.90;;
69005;SDS011;56061;51.748;19.620;2023-04-15T14:42:40;12.30;;;7.00;;